Historyczne dane pomiarowe

Dodano dane terminowe – wersja testowa.

Dane z okresu 1951-2019

Wersja bazy: 1.34 [2019-03-16, lista zmian], aktualizacja planowana na 2019-04-15

Dane meteo z obszaru Polski uzyskane na podstawie danych udostępnionych przez Instytut Meteorologii i Gospodarki Wodnej – Państwowy Instytut Badawczy.

 

Wybierz Datę:    

       

TemperaturaWilgotnośćWiatrCiśnienieOpadyŚniegCzas trwania zjawisk
 Stacja t tx tn tng RH VA  wxwx mslp ppp RRR   cm mm wxwxwxwxwxwxwx
1994-10-10 4.4 8.8 1.1--- 5.3 5.3---- 0.1------------
1994-10-09 4.5 6.8 0.8--- 8.0 9.7---- 24.4------------
1994-10-08 6.6 11.8 2.2--- 3.7 2.0---- 8.6------------
1994-10-07 1.8 6.6 -3.0--- 8.0 6.7---- 0.0------------
1994-10-06 2.1 6.5 -0.2--- 6.0 3.3---- 0.0------------
1994-10-05 3.2 7.3 -0.7--- 4.0 3.0---- 0.0------------
1994-10-04 6.9 15.4 1.6--- 6.7 5.7---- 2.1------------
1994-10-03 13.1 17.2 5.7--- 7.0 4.3---- 2.8------------
1994-10-02 6.9 13.5 0.9--- 4.0 1.0---- 0.1------------
1994-10-01 12.5 19.4 5.5--- 6.0 5.3---- 0.0------------
1994-09-30 12.1 15.6 9.5--- 5.3 2.0---- 0.0------------
1994-09-29 10.9 16.8 5.1--- 3.3 5.3---- 0.0------------
1994-09-28 11.2 15.0 7.3--- 2.7 3.7---- 0.0------------
1994-09-27 13.1 16.2 11.6--- 5.3 3.3---- 7.3------------
1994-09-26 17.4 22.2 15.3--- 4.3 2.0---- 0.0------------
1994-09-25 16.3 24.0 7.6--- 4.0 1.3---- 0.0------------
1994-09-24 13.1 16.6 11.5--- 4.3 4.0---- 0.0------------
1994-09-23 12.7 14.3 11.3--- 8.0 3.0---- 0.0------------
1994-09-22 12.6 15.3 11.0--- 6.3 4.7---- 0.0------------
1994-09-21 11.1 11.9 10.3--- 7.0 3.7---- 1.7------------
1994-09-20 9.9 13.8 8.9--- 8.0 4.0---- 18.6------------
1994-09-19 11.7 16.4 7.1--- 6.3 2.3---- 1.7------------
1994-09-18 10.8 15.6 6.9--- 4.7 2.0---- 0.0------------
1994-09-17 10.8 14.8 3.8--- 6.7 3.0---- 2.7------------
1994-09-16 14.4 18.2 11.4--- 4.7 7.7---- 1.1------------
1994-09-15 21.4 23.8 18.2--- 6.0 5.7---- 0.1------------
1994-09-14 19.8 24.8 15.2--- 2.3 3.7---- 1.0------------
1994-09-13 19.0 25.0 12.3--- 5.0 1.7---- 19.5------------
1994-09-12 13.2 20.2 5.5--- 7.7 2.0---- 0.2------------
1994-09-11 14.1 18.8 10.5--- 5.0 4.0---- 0.0------------
1994-09-10 14.0 20.0 7.0--- 4.3 1.7---- 0.0------------
1994-09-09 18.3 24.6 13.9--- 5.0 4.0---- 11.3------------
1994-09-08 18.4 26.1 11.8--- 2.7 2.3---- 0.0------------
1994-09-07 14.3 20.8 5.5--- 6.0 1.7---- 0.5------------
1994-09-06 14.4 18.8 10.4--- 4.0 1.7---- 0.0------------
1994-09-05 17.2 22.0 12.0--- 5.0 0.7---- 1.2------------
1994-09-04 16.5 19.6 14.0--- 6.7 1.0---- 0.0------------
1994-09-03 19.7 24.8 16.2--- 5.3 1.3---- 13.2------------
1994-09-02 18.9 23.8 14.4--- 7.3 1.7---- 0.1------------
1994-09-01 15.0 20.8 8.4--- 6.3 2.3---- 2.1------------
1994-08-31 15.2 22.8 8.5--- 3.3 0.7---- 0.0------------
1994-08-30 13.4 19.6 8.4--- 6.0 2.7---- 0.0------------
1994-08-29 15.0 20.3 11.3--- 5.7 1.7---- 0.0------------
1994-08-28 17.4 22.1 8.7--- 3.0 5.7---- 1.0------------
1994-08-27 17.1 21.5 10.9--- 3.7 3.0---- 0.0------------
1994-08-26 15.8 18.6 13.7--- 7.3 7.3---- 0.0------------
1994-08-25 15.6 23.4 8.1--- 5.0 4.7---- 0.0------------
1994-08-24 14.2 22.2 6.5--- 4.0 1.7---- 0.0------------
1994-08-23 14.3 21.5 6.6--- 2.7 1.7---- 0.0------------
1994-08-22 15.4 21.7 10.4--- 2.7 2.3---- 0.0------------
1994-08-21 15.5 20.5 11.2--- 4.0 3.0---- 0.0------------
1994-08-20 14.1 18.1 11.6--- 6.3 4.0---- 3.0------------
1994-08-19 12.0 14.5 10.4--- 7.0 5.0---- 10.8------------
1994-08-18 13.3 17.1 11.0--- 7.7 2.7---- 9.2------------
1994-08-17 15.7 22.5 7.7--- 3.3 1.7---- 4.6------------
1994-08-16 15.1 19.4 12.0--- 6.3 4.3---- 0.0------------
1994-08-15 11.2 14.8 8.1--- 6.0 6.0---- 0.4------------
1994-08-14 13.8 17.4 11.5--- 4.3 4.3---- 0.0------------
1994-08-13 16.7 21.8 14.6--- 6.3 5.7---- 5.2------------
1994-08-12 16.5 20.8 15.0--- 7.3 2.7---- 3.2------------
335.1 ms

 

Źródłem pochodzenia danych jest Instytut Meteorologii i Gospodarki Wodnej – Państwowy Instytut Badawczy. Dane Instytutu Meteorologii i Gospodarki Wodnej – Państwowego Instytutu Badawczego zostały przetworzone.

Dane źródłowe można odnaleźć na stronie https://dane.imgw.pl